createdAt,value
2018-09-08T00:01:37.878Z,98642.64
2018-09-08T00:04:07.478Z,98639.96
2018-09-08T00:06:37.394Z,98640.76
2018-09-08T00:09:08.723Z,98640.55
2018-09-08T00:11:38.554Z,98640.58
2018-09-08T00:14:08.058Z,98644.91
2018-09-08T00:16:42.891Z,98646.23
2018-09-08T00:19:17.820Z,98648.91
2018-09-08T00:21:52.437Z,98659.45
2018-09-08T00:24:26.939Z,98654.84
2018-09-08T00:26:55.336Z,98656.62
2018-09-08T00:29:30.891Z,98659.80
2018-09-08T00:32:01.782Z,98662.09
2018-09-08T00:34:31.055Z,98654.55
2018-09-08T00:37:00.528Z,98663.09
2018-09-08T00:39:29.791Z,98658.38
2018-09-08T00:41:59.335Z,98655.23
2018-09-08T00:44:28.837Z,98659.36
2018-09-08T00:46:58.289Z,98663.98
2018-09-08T00:49:27.742Z,98669.41
2018-09-08T00:51:57.146Z,98668.08
2018-09-08T00:54:26.448Z,98667.32
2018-09-08T00:56:56.182Z,98666.87
2018-09-08T00:59:25.665Z,98670.55
2018-09-08T01:01:55.195Z,98675.08
2018-09-08T01:04:24.871Z,98678.55
2018-09-08T01:06:54.374Z,98674.18
2018-09-08T01:09:23.758Z,98675.95
2018-09-08T01:11:53.083Z,98678.34
2018-09-08T01:14:22.482Z,98680.30
2018-09-08T01:16:51.778Z,98681.31
2018-09-08T01:19:21.282Z,98674.91
2018-09-08T01:21:50.991Z,98678.16
2018-09-08T01:24:20.703Z,98682.01
2018-09-08T01:26:50.106Z,98676.16
2018-09-08T01:29:19.504Z,98678.09
2018-09-08T01:31:49.217Z,98677.48
2018-09-08T01:34:18.558Z,98681.79
2018-09-08T01:36:48.226Z,98680.30
2018-09-08T01:39:17.725Z,98685.22
2018-09-08T01:41:47.291Z,98680.11
2018-09-08T01:44:16.808Z,98687.76
2018-09-08T01:46:46.443Z,98690.48
2018-09-08T01:49:15.911Z,98689.20
2018-09-08T01:51:45.555Z,98687.84
2018-09-08T01:54:14.958Z,98694.78
2018-09-08T01:56:44.769Z,98695.81
2018-09-08T01:59:14.276Z,98697.10
2018-09-08T02:01:43.879Z,98695.50
2018-09-08T02:04:13.179Z,98697.64
2018-09-08T02:06:43.810Z,98703.05
2018-09-08T02:09:13.314Z,98700.74
2018-09-08T02:11:43.946Z,98701.80
2018-09-08T02:14:13.296Z,98699.79
2018-09-08T02:16:42.872Z,98702.91
2018-09-08T02:19:12.240Z,98704.56
2018-09-08T02:21:41.719Z,98700.34
2018-09-08T02:24:11.366Z,98697.37
2018-09-08T02:26:40.974Z,98700.48
2018-09-08T02:29:10.373Z,98700.75
2018-09-08T02:31:40.003Z,98700.16
2018-09-08T02:34:09.699Z,98703.70
2018-09-08T02:36:39.502Z,98697.80
2018-09-08T02:39:10.063Z,98699.84
2018-09-08T02:41:39.578Z,98699.50
2018-09-08T02:44:09.039Z,98702.14
2018-09-08T02:46:38.547Z,98699.02
2018-09-08T02:49:08.048Z,98695.41
2018-09-08T02:51:36.324Z,98698.93
2018-09-08T02:54:05.601Z,98695.06
2018-09-08T02:56:33.675Z,98697.86
2018-09-08T02:59:01.711Z,98697.59
2018-09-08T03:01:29.935Z,98651.56
2018-09-08T03:03:57.987Z,98701.70
2018-09-08T03:06:26.283Z,98698.61
2018-09-08T03:08:54.558Z,98699.84
2018-09-08T03:11:22.833Z,98699.36
2018-09-08T03:13:51.110Z,98696.25
2018-09-08T03:16:19.385Z,98710.78
2018-09-08T03:18:47.869Z,98708.72
2018-09-08T03:21:16.040Z,98718.27
2018-09-08T03:23:44.314Z,98714.82
2018-09-08T03:26:12.590Z,98719.41
2018-09-08T03:28:40.847Z,98720.25
2018-09-08T03:31:09.044Z,98719.00
2018-09-08T03:33:37.211Z,98723.46
2018-09-08T03:36:05.279Z,98719.52
2018-09-08T03:38:33.454Z,98724.08
2018-09-08T03:41:01.627Z,98728.05
2018-09-08T03:43:29.901Z,98734.00
2018-09-08T03:45:58.075Z,98731.74
2018-09-08T03:48:26.264Z,98729.33
2018-09-08T03:50:54.524Z,98737.58
2018-09-08T03:53:22.699Z,98736.25
2018-09-08T03:55:50.975Z,98735.62
2018-09-08T03:58:19.245Z,98731.50
2018-09-08T04:00:47.503Z,98732.52
2018-09-08T04:03:16.832Z,98730.39
2018-09-08T04:05:46.204Z,98729.27
2018-09-08T04:08:15.626Z,98730.91
2018-09-08T04:10:45.336Z,98732.23
2018-09-08T04:13:14.737Z,98738.16
2018-09-08T04:15:44.398Z,98735.35
2018-09-08T04:18:13.900Z,98735.20
2018-09-08T04:20:43.353Z,98742.27
2018-09-08T04:23:12.598Z,98746.75
2018-09-08T04:25:41.954Z,98744.12
2018-09-08T04:28:11.354Z,98746.41
2018-09-08T04:30:40.735Z,98754.16
2018-09-08T04:33:10.157Z,98755.81
2018-09-08T04:35:39.448Z,98758.10
2018-09-08T04:38:09.040Z,98756.78
2018-09-08T04:40:38.331Z,98763.86
2018-09-08T04:43:08.584Z,98493.02
2018-09-08T04:45:37.986Z,98764.53
2018-09-08T04:48:07.414Z,98755.62
2018-09-08T04:50:36.894Z,98761.72
2018-09-08T04:53:06.397Z,98762.38
2018-09-08T04:55:37.152Z,98768.66
2018-09-08T04:58:06.832Z,98762.89
2018-09-08T05:00:36.342Z,98767.84
2018-09-08T05:03:05.849Z,98768.83
2018-09-08T05:05:35.249Z,98775.73
2018-09-08T05:08:04.728Z,98775.73
2018-09-08T05:10:34.263Z,98776.54
2018-09-08T05:13:03.659Z,98779.67
2018-09-08T05:15:32.903Z,98780.48
2018-09-08T05:18:02.247Z,98776.72
2018-09-08T05:20:31.539Z,98778.83
2018-09-08T05:23:02.087Z,98787.24
2018-09-08T05:25:31.592Z,98790.19
2018-09-08T05:28:00.981Z,98797.39
2018-09-08T05:30:30.321Z,98798.34
2018-09-08T05:32:59.797Z,98809.03
2018-09-08T05:35:29.199Z,98810.34
2018-09-08T05:37:58.601Z,98816.82
2018-09-08T05:40:27.850Z,98816.99
2018-09-08T05:42:57.521Z,98813.85
2018-09-08T05:45:27.091Z,98822.09
2018-09-08T05:47:56.434Z,98823.88
2018-09-08T05:50:25.917Z,98829.02
2018-09-08T05:52:55.188Z,98822.40
2018-09-08T05:55:24.618Z,98827.63
2018-09-08T05:57:54.225Z,98828.24
2018-09-08T06:00:23.627Z,98828.73
2018-09-08T06:02:53.031Z,98831.83
2018-09-08T06:05:22.636Z,98836.80
2018-09-08T06:07:52.553Z,98840.69
2018-09-08T06:10:22.346Z,98845.35
2018-09-08T06:12:51.765Z,98840.92
2018-09-08T06:15:21.229Z,98844.70
2018-09-08T06:17:50.873Z,98843.66
2018-09-08T06:20:20.486Z,98844.83
2018-09-08T06:22:50.300Z,98853.06
2018-09-08T06:25:19.736Z,98852.61
2018-09-08T06:27:49.402Z,98859.44
2018-09-08T06:30:18.767Z,98859.48
2018-09-08T06:32:48.410Z,98857.70
2018-09-08T06:35:18.094Z,98861.13
2018-09-08T06:37:47.420Z,98857.99
2018-09-08T06:40:16.822Z,98855.38
2018-09-08T06:42:46.205Z,98852.82
2018-09-08T06:45:15.777Z,98857.13
2018-09-08T06:47:45.185Z,98854.16
2018-09-08T06:50:14.633Z,98854.64
2018-09-08T06:52:44.240Z,98853.06
2018-09-08T06:55:13.713Z,98850.34
2018-09-08T06:57:43.359Z,98856.01
2018-09-08T07:00:12.812Z,98856.63
2018-09-08T07:02:42.257Z,98856.95
2018-09-08T07:05:11.768Z,98854.36
2018-09-08T07:07:41.127Z,98851.02
2018-09-08T07:10:10.565Z,98856.21
2018-09-08T07:12:39.961Z,98852.70
2018-09-08T07:15:09.491Z,98853.68
2018-09-08T07:17:39.078Z,98857.56
2018-09-08T07:20:08.685Z,98864.11
2018-09-08T07:22:38.190Z,98855.88
2018-09-08T07:25:08.261Z,98857.14
2018-09-08T07:27:38.016Z,98854.09
2018-09-08T07:30:07.771Z,98857.04
2018-09-08T07:32:37.324Z,98863.48
2018-09-08T07:35:07.041Z,98860.50
2018-09-08T07:37:36.504Z,98859.70
2018-09-08T07:40:06.055Z,98858.45
2018-09-08T07:42:35.423Z,98862.02
2018-09-08T07:45:05.060Z,98861.95
2018-09-08T07:47:34.461Z,98865.43
2018-09-08T07:50:04.067Z,98860.42
2018-09-08T07:52:33.565Z,98867.98
2018-09-08T07:55:03.075Z,98869.88
2018-09-08T07:57:32.785Z,98872.12
2018-09-08T08:00:02.250Z,98871.91
2018-09-08T08:02:31.691Z,98876.98
2018-09-08T08:05:01.161Z,98881.53
2018-09-08T08:07:30.598Z,98883.88
2018-09-08T08:10:00.037Z,98883.80
2018-09-08T08:12:29.501Z,98880.61
2018-09-08T08:14:59.332Z,98882.19
2018-09-08T08:17:28.909Z,98880.09
2018-09-08T08:19:58.323Z,98886.71
2018-09-08T08:22:27.725Z,98882.19
2018-09-08T08:24:58.133Z,98876.35
2018-09-08T08:27:27.554Z,98878.48
2018-09-08T08:29:57.058Z,98878.48
2018-09-08T08:32:26.300Z,98878.47
2018-09-08T08:34:55.848Z,98875.88
2018-09-08T08:37:25.367Z,98875.84
2018-09-08T08:39:54.766Z,98874.78
2018-09-08T08:42:25.088Z,98881.55
2018-09-08T08:44:55.004Z,98883.66
2018-09-08T08:47:24.406Z,98887.71
2018-09-08T08:50:05.957Z,98883.75
2018-09-08T08:52:46.351Z,98886.64
2018-09-08T08:55:14.628Z,98887.27
2018-09-08T08:57:44.093Z,98889.09
2018-09-08T09:00:13.468Z,98886.61
2018-09-08T09:02:43.147Z,98879.27
2018-09-08T09:05:12.664Z,98884.78
2018-09-08T09:07:42.251Z,98878.62
2018-09-08T09:10:11.824Z,98873.80
2018-09-08T09:12:41.317Z,98874.83
2018-09-08T09:15:11.208Z,98874.76
2018-09-08T09:17:40.574Z,98864.22
2018-09-08T09:20:22.578Z,98868.51
2018-09-08T09:23:03.606Z,98873.86
2018-09-08T09:25:33.187Z,98862.65
2018-09-08T09:28:05.082Z,98865.45
2018-09-08T09:30:34.635Z,98866.11
2018-09-08T09:33:06.181Z,98869.36
2018-09-08T09:35:35.680Z,98860.04
2018-09-08T09:38:05.185Z,98855.47
2018-09-08T09:40:35.997Z,98848.38
2018-09-08T09:43:05.731Z,98853.78
2018-09-08T09:45:35.180Z,98854.66
2018-09-08T09:48:04.736Z,98853.93
2018-09-08T09:50:34.210Z,98854.55
2018-09-08T09:53:03.675Z,98846.30
2018-09-08T09:55:33.142Z,98854.19
2018-09-08T09:58:02.610Z,98852.38
2018-09-08T10:00:37.373Z,98841.74
2018-09-08T10:03:08.293Z,98841.77
2018-09-08T10:05:40.832Z,98845.64
2018-09-08T10:08:16.639Z,98841.42
2018-09-08T10:10:46.136Z,98847.34
2018-09-08T10:13:15.746Z,98850.20
2018-09-08T10:15:45.356Z,98849.79
2018-09-08T10:18:14.813Z,98838.70
2018-09-08T10:20:44.261Z,98843.73
2018-09-08T10:23:13.658Z,98839.52
2018-09-08T10:25:43.270Z,98838.48
2018-09-08T10:28:12.622Z,98845.00
2018-09-08T10:30:42.074Z,98840.16
2018-09-08T10:33:11.376Z,98844.72
2018-09-08T10:35:40.877Z,98832.21
2018-09-08T10:38:10.284Z,98827.75
2018-09-08T10:40:39.887Z,98830.06
2018-09-08T10:43:09.291Z,98829.20
2018-09-08T10:45:38.610Z,98833.52
2018-09-08T10:48:08.198Z,98830.53
2018-09-08T10:50:39.511Z,98832.05
2018-09-08T10:53:08.944Z,98839.98
2018-09-08T10:55:38.558Z,98834.16
2018-09-08T10:58:08.029Z,98832.61
2018-09-08T11:00:37.418Z,98832.96
2018-09-08T11:03:06.761Z,98833.06
2018-09-08T11:05:36.419Z,98828.06
2018-09-08T11:08:05.870Z,98820.55
2018-09-08T11:10:35.232Z,98825.48
2018-09-08T11:13:04.673Z,98819.95
2018-09-08T11:15:34.180Z,98816.55
2018-09-08T11:18:03.682Z,98811.52
2018-09-08T11:20:33.287Z,98814.71
2018-09-08T11:23:02.768Z,98821.67
2018-09-08T11:25:32.200Z,98808.50
2018-09-08T11:28:01.498Z,98812.66
2018-09-08T11:30:31.222Z,98816.61
2018-09-08T11:33:00.658Z,98813.34
2018-09-08T11:35:30.212Z,98820.33
2018-09-08T11:37:59.740Z,98820.63
2018-09-08T11:40:29.118Z,98816.41
2018-09-08T11:42:58.575Z,98813.30
2018-09-08T11:45:29.048Z,98803.72
2018-09-08T11:47:58.512Z,98809.89
2018-09-08T11:50:27.852Z,98798.23
2018-09-08T11:52:57.186Z,98810.38
2018-09-08T11:55:26.759Z,98806.64
2018-09-08T11:57:56.160Z,98796.73
2018-09-08T12:00:25.663Z,98795.82
2018-09-08T12:02:54.932Z,98798.92
2018-09-08T12:05:24.366Z,98802.09
2018-09-08T12:07:53.619Z,98803.28
2018-09-08T12:10:23.169Z,98804.72
2018-09-08T12:12:52.477Z,98786.66
2018-09-08T12:15:22.264Z,98772.53
2018-09-08T12:17:51.526Z,98776.03
2018-09-08T12:20:20.840Z,98773.37
2018-09-08T12:22:50.284Z,98773.34
2018-09-08T12:25:19.791Z,98776.35
2018-09-08T12:27:49.648Z,98771.17
2018-09-08T12:30:19.231Z,98774.45
2018-09-08T12:32:48.581Z,98775.22
2018-09-08T12:35:17.889Z,98782.64
2018-09-08T12:37:47.418Z,98777.52
2018-09-08T12:40:16.813Z,98765.05
2018-09-08T12:42:46.042Z,98768.97
2018-09-08T12:45:15.718Z,98767.98
2018-09-08T12:47:45.122Z,98773.84
2018-09-08T12:50:14.522Z,98779.19
2018-09-08T12:52:45.818Z,98784.19
2018-09-08T12:55:15.480Z,98769.27
2018-09-08T12:57:44.879Z,98777.94
2018-09-08T13:00:14.393Z,98778.11
2018-09-08T13:02:43.788Z,98764.80
2018-09-08T13:05:13.393Z,98763.42
2018-09-08T13:07:43.047Z,98783.84
2018-09-08T13:10:12.610Z,98769.91
2018-09-08T13:12:43.549Z,98764.15
2018-09-08T13:15:19.603Z,98757.94
2018-09-08T13:17:49.209Z,98750.89
2018-09-08T13:20:18.612Z,98751.59
2018-09-08T13:22:48.117Z,98753.27
2018-09-08T13:25:17.928Z,98741.63
2018-09-08T13:27:47.596Z,98740.05
2018-09-08T13:30:17.052Z,98744.07
2018-09-08T13:32:47.440Z,98744.91
2018-09-08T13:35:16.923Z,98742.02
2018-09-08T13:37:46.473Z,98733.65
2018-09-08T13:40:17.102Z,98731.69
2018-09-08T13:42:46.503Z,98728.02
2018-09-08T13:45:16.115Z,98725.66
2018-09-08T13:47:45.615Z,98718.58
2018-09-08T13:50:15.018Z,98719.06
2018-09-08T13:52:44.421Z,98719.78
2018-09-08T13:55:13.906Z,98721.39
2018-09-08T13:57:43.473Z,98730.98
2018-09-08T14:00:13.020Z,98723.61
2018-09-08T14:02:42.652Z,98724.12
2018-09-08T14:05:12.250Z,98727.92
2018-09-08T14:07:47.079Z,98727.00
2018-09-08T14:10:17.054Z,98721.13
2018-09-08T14:12:46.421Z,98724.81
2018-09-08T14:15:15.913Z,98725.26
2018-09-08T14:17:49.293Z,98710.98
2018-09-08T14:20:18.907Z,98705.81
2018-09-08T14:22:49.294Z,98704.40
2018-09-08T14:25:18.935Z,98707.32
2018-09-08T14:27:48.395Z,98708.81
2018-09-08T14:30:17.748Z,98708.18
2018-09-08T14:32:47.199Z,98706.49
2018-09-08T14:35:16.721Z,98706.36
2018-09-08T14:37:46.253Z,98717.00
2018-09-08T14:40:16.678Z,98709.47
2018-09-08T14:42:46.385Z,98713.40
2018-09-08T14:45:15.992Z,98705.93
2018-09-08T14:47:45.440Z,98705.22
2018-09-08T14:50:14.898Z,98705.19
2018-09-08T14:52:44.205Z,98703.55
2018-09-08T14:55:13.623Z,98708.84
2018-09-08T14:57:43.046Z,98706.35
2018-09-08T15:00:12.451Z,98709.48
2018-09-08T15:02:42.013Z,98705.63
2018-09-08T15:05:11.474Z,98711.38
2018-09-08T15:07:41.570Z,98712.22
2018-09-08T15:10:11.158Z,98711.61
2018-09-08T15:12:41.771Z,98711.42
2018-09-08T15:15:11.351Z,98714.45
2018-09-08T15:17:41.200Z,98705.46
2018-09-08T15:20:10.811Z,98703.92
2018-09-08T15:22:41.529Z,98707.53
2018-09-08T15:25:12.056Z,98705.53
2018-09-08T15:27:41.663Z,98700.33
2018-09-08T15:30:11.066Z,98702.63
2018-09-08T15:32:40.861Z,98694.30
2018-09-08T15:35:11.714Z,98700.66
2018-09-08T15:37:41.220Z,98700.81
2018-09-08T15:40:10.956Z,98697.11
2018-09-08T15:42:41.251Z,98691.15
2018-09-08T15:45:10.970Z,98695.73
2018-09-08T15:47:41.394Z,98695.17
2018-09-08T15:50:12.116Z,98695.80
2018-09-08T15:52:41.725Z,98697.61
2018-09-08T15:55:10.978Z,98703.22
2018-09-08T15:57:40.470Z,98703.42
2018-09-08T16:00:10.019Z,98701.82
2018-09-08T16:02:39.350Z,98701.62
2018-09-08T16:05:08.841Z,98705.08
2018-09-08T16:07:38.238Z,98699.63
2018-09-08T16:10:07.538Z,98702.99
2018-09-08T16:12:36.868Z,98700.89
2018-09-08T16:15:06.342Z,98699.72
2018-09-08T16:17:35.949Z,98701.70
2018-09-08T16:20:05.452Z,98704.36
2018-09-08T16:22:34.732Z,98703.72
2018-09-08T16:25:04.157Z,98704.73
2018-09-08T16:27:33.557Z,98704.54
2018-09-08T16:30:02.880Z,98707.14
2018-09-08T16:32:32.326Z,98709.54
2018-09-08T16:35:01.770Z,98711.47
2018-09-08T16:37:31.269Z,98698.98
2018-09-08T16:40:00.567Z,98699.97
2018-09-08T16:42:29.871Z,98707.53
2018-09-08T16:44:59.267Z,98705.06
2018-09-08T16:47:28.727Z,98706.66
2018-09-08T16:49:58.391Z,98698.56
2018-09-08T16:52:28.017Z,98701.75
2018-09-08T16:54:57.592Z,98699.70
2018-09-08T16:57:28.736Z,98701.28
2018-09-08T16:59:58.207Z,98708.30
2018-09-08T17:02:27.607Z,98697.22
2018-09-08T17:04:57.129Z,98702.27
2018-09-08T17:07:27.277Z,98704.25
2018-09-08T17:09:56.874Z,98695.59
2018-09-08T17:12:26.151Z,98694.95
2018-09-08T17:14:57.112Z,98699.13
2018-09-08T17:17:26.515Z,98689.27
2018-09-08T17:19:55.840Z,98704.33
2018-09-08T17:22:25.284Z,98702.59
2018-09-08T17:24:54.613Z,98704.22
2018-09-08T17:27:24.122Z,98712.00
2018-09-08T17:29:53.439Z,98717.47
2018-09-08T17:32:22.988Z,98723.02
2018-09-08T17:34:52.325Z,98722.62
2018-09-08T17:37:21.604Z,98720.05
2018-09-08T17:39:51.073Z,98716.60
2018-09-08T17:42:20.532Z,98718.49
2018-09-08T17:44:49.954Z,98720.48
2018-09-08T17:47:19.643Z,98728.28
2018-09-08T17:49:49.148Z,98723.89
2018-09-08T17:52:18.755Z,98728.56
2018-09-08T17:54:48.471Z,98728.97
2018-09-08T17:57:18.025Z,98729.09
2018-09-08T17:59:47.358Z,98727.17
2018-09-08T18:02:16.877Z,98732.05
2018-09-08T18:04:46.289Z,98728.77
2018-09-08T18:07:17.522Z,98733.84
2018-09-08T18:09:47.274Z,98740.84
2018-09-08T18:12:16.632Z,98747.06
2018-09-08T18:14:46.035Z,98744.52
2018-09-08T18:17:15.583Z,98739.77
2018-09-08T18:19:44.944Z,98741.72
2018-09-08T18:22:14.446Z,98745.57
2018-09-08T18:24:43.917Z,98744.25
2018-09-08T18:27:13.454Z,98744.77
2018-09-08T18:29:43.024Z,98743.39
2018-09-08T18:32:12.973Z,98742.19
2018-09-08T18:34:42.582Z,98753.41
2018-09-08T18:37:13.119Z,98751.70
2018-09-08T18:39:42.615Z,98746.82
2018-09-08T18:42:12.017Z,98748.97
2018-09-08T18:44:41.931Z,98746.30
2018-09-08T18:47:11.622Z,98753.50
2018-09-08T18:49:41.306Z,98758.54
2018-09-08T18:52:10.854Z,98757.30
2018-09-08T18:54:40.262Z,98761.61
2018-09-08T18:57:09.861Z,98762.22
2018-09-08T18:59:39.368Z,98755.02
2018-09-08T19:02:08.676Z,98760.16
2018-09-08T19:04:38.187Z,98756.75
2018-09-08T19:07:07.783Z,98745.38
2018-09-08T19:09:37.263Z,98752.55
2018-09-08T19:12:07.707Z,98747.28
2018-09-08T19:15:46.434Z,98758.34
2018-09-08T19:18:16.451Z,98752.67
2018-09-08T19:20:46.057Z,98759.20
2018-09-08T19:23:15.869Z,98756.17
2018-09-08T19:25:45.929Z,98760.58
2018-09-08T19:28:15.492Z,98757.02
2018-09-08T19:30:45.103Z,98762.48
2018-09-08T19:33:15.143Z,98765.20
2018-09-08T19:35:45.127Z,98764.95
2018-09-08T19:38:14.563Z,98772.33
2018-09-08T19:40:49.431Z,98770.48
2018-09-08T19:43:19.175Z,98769.36
2018-09-08T19:45:48.679Z,98776.77
2018-09-08T19:48:19.520Z,98565.05
2018-09-08T19:50:48.916Z,98787.91
2018-09-08T19:53:23.757Z,98797.67
2018-09-08T19:55:54.528Z,98800.09
2018-09-08T19:58:29.436Z,98787.95
2018-09-08T20:00:58.919Z,98791.17
2018-09-08T20:03:28.422Z,98781.77
2018-09-08T20:05:57.930Z,98783.30
2018-09-08T20:08:27.428Z,98783.55
2018-09-08T20:10:56.673Z,98786.59
2018-09-08T20:13:26.234Z,98785.14
2018-09-08T20:15:55.736Z,98789.37
2018-09-08T20:18:25.248Z,98788.96
2018-09-08T20:20:54.541Z,98789.38
2018-09-08T20:23:24.148Z,98789.32
2018-09-08T20:25:53.447Z,98785.27
2018-09-08T20:28:22.962Z,98791.22
2018-09-08T20:30:52.379Z,98780.00
2018-09-08T20:33:21.859Z,98771.63
2018-09-08T20:35:51.363Z,98771.96
2018-09-08T20:38:23.120Z,98781.99
2018-09-08T20:40:52.794Z,98781.97
2018-09-08T20:43:22.539Z,98787.09
2018-09-08T20:45:53.138Z,98788.83
2018-09-08T20:48:23.173Z,98782.60
2018-09-08T20:50:52.789Z,98771.88
2018-09-08T20:53:22.397Z,98786.78
2018-09-08T20:55:51.798Z,98787.09
2018-09-08T20:58:21.195Z,98792.09
2018-09-08T21:00:50.836Z,98795.16
2018-09-08T21:03:20.416Z,98789.34
2018-09-08T21:05:49.827Z,98793.52
2018-09-08T21:08:19.587Z,98784.94
2018-09-08T21:10:49.413Z,98798.86
2018-09-08T21:13:19.516Z,98800.28
2018-09-08T21:15:49.164Z,98798.86
2018-09-08T21:18:18.772Z,98804.05
2018-09-08T21:20:48.225Z,98801.49
2018-09-08T21:23:17.922Z,98789.31
2018-09-08T21:25:47.491Z,98789.51
2018-09-08T21:28:16.949Z,98788.08
2018-09-08T21:30:46.396Z,98783.09
2018-09-08T21:33:15.797Z,98777.97
2018-09-08T21:35:45.610Z,98788.28
2018-09-08T21:38:15.219Z,98787.08
2018-09-08T21:40:44.721Z,98790.92
2018-09-08T21:43:14.075Z,98788.15
2018-09-08T21:45:43.587Z,98793.45
2018-09-08T21:48:13.234Z,98805.68
2018-09-08T21:50:42.841Z,98801.34
2018-09-08T21:53:12.413Z,98788.77
2018-09-08T21:55:44.103Z,98782.26
2018-09-08T21:58:13.709Z,98783.95
2018-09-08T22:00:47.435Z,98787.22
2018-09-08T22:03:17.901Z,98787.50
2018-09-08T22:05:47.547Z,98781.09
2018-09-08T22:08:17.007Z,98781.27
2018-09-08T22:10:46.499Z,98790.59
2018-09-08T22:13:16.368Z,98797.88
2018-09-08T22:15:45.786Z,98810.79
2018-09-08T22:18:15.052Z,98812.77
2018-09-08T22:20:44.511Z,98810.15
2018-09-08T22:23:13.948Z,98803.55
2018-09-08T22:25:43.441Z,98799.09
2018-09-08T22:28:12.984Z,98792.39
2018-09-08T22:30:42.384Z,98798.75
2018-09-08T22:33:11.850Z,98787.33
2018-09-08T22:35:41.259Z,98790.18
2018-09-08T22:38:10.798Z,98795.56
2018-09-08T22:40:40.403Z,98792.72
2018-09-08T22:43:09.807Z,98788.55
2018-09-08T22:45:40.332Z,98800.60
2018-09-08T22:48:09.694Z,98806.52
2018-09-08T22:50:46.247Z,98812.55
2018-09-08T22:53:18.124Z,98814.71
2018-09-08T22:55:47.567Z,98798.75
2018-09-08T22:58:17.029Z,98807.80
2018-09-08T23:00:54.730Z,98815.95
2018-09-08T23:03:37.685Z,98811.77
2018-09-08T23:06:08.208Z,98802.07
2018-09-08T23:08:37.719Z,98800.83
2018-09-08T23:11:07.396Z,98798.45
2018-09-08T23:13:36.830Z,98804.05
2018-09-08T23:16:06.401Z,98786.80
2018-09-08T23:18:35.651Z,98789.06
2018-09-08T23:21:05.034Z,98797.13
2018-09-08T23:23:34.540Z,98798.85
2018-09-08T23:26:04.147Z,98795.30
2018-09-08T23:28:33.594Z,98795.72
2018-09-08T23:31:03.051Z,98795.88
2018-09-08T23:33:32.780Z,98797.39
2018-09-08T23:36:02.443Z,98797.17
2018-09-08T23:38:31.887Z,98766.31
2018-09-08T23:41:01.329Z,98808.29
2018-09-08T23:43:30.783Z,98813.74
2018-09-08T23:46:00.252Z,98814.92
2018-09-08T23:48:29.584Z,98821.83
2018-09-08T23:50:58.986Z,98818.87
2018-09-08T23:53:28.458Z,98821.02
2018-09-08T23:55:57.770Z,98818.55
2018-09-08T23:58:27.021Z,98829.55
